Tiempo atmosférico en la estación meteorológica de Boiro, A Coruña (10 m.)

Fecha
DESCASC
Temp. máxima en grados centígrados (hora)
DESCASC
Temp. mínima en grados centígrados (hora)
DESCASC
Temp. media en grados centígrados
DESCASC
Racha de viento máxima en m/sg (hora)
DESCASC
Velocidad máxima media en intervalos de 10 minutos(hora)
DESCASC
Precipitaciones diarias en mm
DESCASC
Precipitaciones de 00:00 a 06:00 en mm
DESCASC
Precipitaciones de 06:00 a 12:00 en mm
DESCASC
Precipitaciones de 12:00 a 18:00 en mm
DESCASC
Precipitaciones de 18:00 a 24:00 en mm
DESCASC
23-11-2017 16.4 (13:50) 13.6 (08:10) 15 -- (--) -- (--) 2 1.8 0 0 0.2
22-11-2017 17.2 (14:10) 13.9 (00:00) 15.6 -- (--) -- (--) 22.2 0 0 0 22.2
21-11-2017 18.3 (16:00) 3.4 (07:10) 10.8 -- (--) -- (--) 0 0 0 0 0
20-11-2017 17.7 (16:00) 3 (08:10) 10.4 -- (--) -- (--) 0 0 0 0 0
19-11-2017 19.2 (17:00) 3.5 (00:00) 11.4 -- (--) -- (--) 0 0 0 0 0
18-11-2017 19.9 (16:10) 3.9 (00:00) 11.9 -- (--) -- (--) 0 0 0 0 0
17-11-2017 18.2 (16:40) 3.3 (00:00) 10.8 -- (--) -- (--) 0 0 0 0 0
16-11-2017 18 (16:50) 1.9 (00:00) 9.9 -- (--) -- (--) 0 0 0 0 0
15-11-2017 17.3 (16:40) 3.9 (00:00) 10.6 -- (--) -- (--) 0 0 0 0 0
14-11-2017 16.9 (16:20) 4.1 (00:00) 10.5 -- (--) -- (--) 0 0 0 0 0
13-11-2017 16.4 (16:30) 10.9 (00:00) 13.6 -- (--) -- (--) 0 0 0 0 0
12-11-2017 15 (14:10) 11.6 (00:00) 13.3 -- (--) -- (--) 0 0 0 0 0
11-11-2017 17.5 (16:40) 10.6 (00:00) 14.1 -- (--) -- (--) 0 0 0 0 0
10-11-2017 17.5 (14:40) 10.2 (00:00) 13.8 -- (--) -- (--) 0 0 0 0 0
09-11-2017 12.8 (21:30) 6 (00:00) 9.4 -- (--) -- (--) 0 0 0 0 0
08-11-2017 15.2 (15:20) 4.9 (00:00) 10 -- (--) -- (--) 0 0 0 0 0
07-11-2017 14.3 (16:00) 3.9 (00:00) 9.1 -- (--) -- (--) 0 0 0 0 0
06-11-2017 17.3 (16:30) 5.7 (00:00) 11.5 -- (--) -- (--) 0 0 0 0 0
05-11-2017 15.8 (15:50) 8.1 (00:00) 12 -- (--) -- (--) 0 0 0 0 0
04-11-2017 18.8 (14:10) 11.9 (00:00) 15.3 -- (--) -- (--) 0.2 0 0 0 0.2
03-11-2017 16 (13:30) 12.1 (00:00) 14.1 -- (--) -- (--) 20.8 12 5.2 0.6 3
02-11-2017 17.9 (15:00) 14.1 (10:00) 16 -- (--) -- (--) 13.8 0 13.6 0 0.2
01-11-2017 17 (14:10) 9.1 (00:00) 13.1 -- (--) -- (--) 3.2 0 0 0.6 2.6
31-10-2017 21.9 (16:20) 7.9 (00:00) 14.9 -- (--) -- (--) 0 0 0 0 0
30-10-2017 20.7 (15:30) 15.3 (00:00) 18 -- (--) -- (--) 0 0 0 0 0
29-10-2017 23 (15:40) 13.4 (00:00) 18.2 -- (--) -- (--) 0 0 0 0 0
28-10-2017 27.4 (17:00) 14.6 (00:00) 21 -- (--) -- (--) 0 0 0 0 0
27-10-2017 28.9 (17:00) 10.5 (00:00) 19.7 -- (--) -- (--) 0 0 0 0 0
26-10-2017 22.4 (16:50) 11.7 (00:00) 17 -- (--) -- (--) 0 0 0 0 0
25-10-2017 23 (17:00) 7.1 (00:00) 15 -- (--) -- (--) 0 0 0 0 0

Gráficas

Temp. máximas Temp. mínimas Temp. medias Precipitaciones Rachas de viento máximas Velocidades máximas media en intervalos de 10 minutos

Datos horarios

Fecha y hora oficial Temperatura (ºC) Velocidad del viento (km/h) Dirección del viento Racha (km/h) Dirección de racha Precipitación (mm) Presión (hPa) Tendencia (hPa) Humedad (%)
2017-11-23 23:00:00 14.9 -- -- -- -- 0 -- -- 96
2017-11-23 22:00:00 14.7 -- -- -- -- 0 -- -- 97
2017-11-23 21:00:00 14.7 -- -- -- -- 0 -- -- 97
2017-11-23 20:00:00 14.7 -- -- -- -- 0.2 -- -- 97
2017-11-23 19:00:00 14.6 -- -- -- -- 0 -- -- 97
2017-11-23 18:00:00 14.6 -- -- -- -- 0 -- -- 97
2017-11-23 17:00:00 14.7 -- -- -- -- 0 -- -- 97
2017-11-23 16:00:00 14.6 -- -- -- -- 0 -- -- 95
2017-11-23 15:00:00 15 -- -- -- -- 0 -- -- 93
2017-11-23 14:00:00 16.4 -- -- -- -- 0 -- -- 87
2017-11-23 13:00:00 15.6 -- -- -- -- 0 -- -- 94
2017-11-23 12:00:00 14.5 -- -- -- -- 0 -- -- 97
2017-11-23 11:00:00 14.7 -- -- -- -- 0 -- -- 95
2017-11-23 10:00:00 14.5 -- -- -- -- 0 -- -- 96
2017-11-23 09:00:00 14.1 -- -- -- -- 0 -- -- 96
2017-11-23 08:00:00 13.7 -- -- -- -- 0 -- -- 96
2017-11-23 07:00:00 14 -- -- -- -- 0 -- -- 96
2017-11-23 06:00:00 14.2 -- -- -- -- 0 -- -- 95
2017-11-23 05:00:00 14.3 -- -- -- -- 0 -- -- 95
2017-11-23 04:00:00 14.4 -- -- -- -- 0 -- -- 95
2017-11-23 03:00:00 14.5 -- -- -- -- 0 -- -- 94
2017-11-23 02:00:00 14.8 -- -- -- -- 0 -- -- 94
2017-11-23 01:00:00 14.6 -- -- -- -- 1.8 -- -- 93
2017-11-23 00:00:00 15.3 -- -- -- -- 8.4 -- -- 94
2017-11-22 23:00:00 14.9 -- -- -- -- 0 -- -- 91
2017-11-22 22:00:00 15.2 -- -- -- -- 0 -- -- 91
2017-11-22 21:00:00 15 -- -- -- -- 0 -- -- 92
2017-11-22 20:00:00 15.3 -- -- -- -- 10.8 -- -- 91
2017-11-22 19:00:00 14.8 -- -- -- -- 3 -- -- 89
2017-11-22 18:00:00 15.9 -- -- -- -- 0 -- -- 75
2017-11-22 17:00:00 16 -- -- -- -- 0 -- -- 72
2017-11-22 16:00:00 16.3 -- -- -- -- 0 -- -- 67
2017-11-22 15:00:00 17.1 -- -- -- -- 0 -- -- 60
2017-11-22 14:00:00 17 -- -- -- -- 0 -- -- 62
2017-11-22 13:00:00 15.5 -- -- -- -- 0 -- -- 72
2017-11-22 12:00:00 15.9 -- -- -- -- 0 -- -- 70
2017-11-22 11:00:00 15.9 -- -- -- -- 0 -- -- 70
2017-11-22 10:00:00 16 -- -- -- -- 0 -- -- 67
2017-11-22 09:00:00 15.4 -- -- -- -- 0 -- -- 70
2017-11-22 08:00:00 14.7 -- -- -- -- 0 -- -- 76
2017-11-22 07:00:00 14.3 -- -- -- -- 0 -- -- 87
2017-11-22 06:00:00 14.3 -- -- -- -- 0 -- -- 87
2017-11-22 05:00:00 14.7 -- -- -- -- 0 -- -- 84
2017-11-22 04:00:00 15.1 -- -- -- -- 0 -- -- 84
2017-11-22 03:00:00 15.1 -- -- -- -- 0 -- -- 84
2017-11-22 02:00:00 15.1 -- -- -- -- 0 -- -- 85
2017-11-22 01:00:00 14.3 -- -- -- -- 0 -- -- 84
2017-11-22 00:00:00 13.9 -- -- -- -- 0 -- -- 84
2017-11-21 23:00:00 14.2 -- -- -- -- 0 -- -- 85
2017-11-21 22:00:00 14.4 -- -- -- -- 0 -- -- 86
2017-11-21 21:00:00 14.5 -- -- -- -- 0 -- -- 84
2017-11-21 20:00:00 13.5 -- -- -- -- 0 -- -- 87
2017-11-21 19:00:00 13.9 -- -- -- -- 0 -- -- 77
2017-11-21 18:00:00 15 -- -- -- -- 0 -- -- 71
2017-11-21 17:00:00 16.5 -- -- -- -- 0 -- -- 57
2017-11-21 16:00:00 18.3 -- -- -- -- 0 -- -- 46
2017-11-21 15:00:00 16.9 -- -- -- -- 0 -- -- 61
2017-11-21 14:00:00 16.3 -- -- -- -- 0 -- -- 62
2017-11-21 13:00:00 15.4 -- -- -- -- 0 -- -- 72
2017-11-21 12:00:00 13.1 -- -- -- -- 0 -- -- 84
2017-11-21 11:00:00 9.7 -- -- -- -- 0 -- -- 97
2017-11-21 10:00:00 5.6 -- -- -- -- 0 -- -- 96
2017-11-21 09:00:00 3.7 -- -- -- -- 0 -- -- 95
2017-11-21 08:00:00 3.5 -- -- -- -- 0 -- -- 95
2017-11-21 07:00:00 3.5 -- -- -- -- 0 -- -- 94
2017-11-21 06:00:00 3.7 -- -- -- -- 0 -- -- 93
2017-11-21 05:00:00 3.9 -- -- -- -- 0 -- -- 93
2017-11-21 04:00:00 4.3 -- -- -- -- 0 -- -- 92
2017-11-21 03:00:00 4.3 -- -- -- -- 0 -- -- 92
2017-11-21 02:00:00 4.3 -- -- -- -- 0 -- -- 91
2017-11-21 01:00:00 4.9 -- -- -- -- 0 -- -- 90
2017-11-21 00:00:00 5.5 -- -- -- -- 0 -- -- 88
2017-11-20 23:00:00 5.9 -- -- -- -- 0 -- -- 87
2017-11-20 22:00:00 6.2 -- -- -- -- 0 -- -- 86
2017-11-20 21:00:00 7.2 -- -- -- -- 0 -- -- 84
2017-11-20 20:00:00 8.8 -- -- -- -- 0 -- -- 81
2017-11-20 19:00:00 10.9 -- -- -- -- 0 -- -- 78
2017-11-20 18:00:00 13.8 -- -- -- -- 0 -- -- 70
2017-11-20 17:00:00 16.6 -- -- -- -- 0 -- -- 56
2017-11-20 16:00:00 17.7 -- -- -- -- 0 -- -- 48
2017-11-20 15:00:00 16.4 -- -- -- -- 0 -- -- 49
2017-11-20 14:00:00 14.8 -- -- -- -- 0 -- -- 68
2017-11-20 13:00:00 13.7 -- -- -- -- 0 -- -- 73
2017-11-20 12:00:00 11.4 -- -- -- -- 0 -- -- 82
2017-11-20 11:00:00 8.3 -- -- -- -- 0 -- -- 97
2017-11-20 10:00:00 4.8 -- -- -- -- 0 -- -- 97
2017-11-20 09:00:00 3.2 -- -- -- -- 0 -- -- 96
2017-11-20 08:00:00 3.1 -- -- -- -- 0 -- -- 95
2017-11-20 07:00:00 3.3 -- -- -- -- 0 -- -- 95
2017-11-20 06:00:00 3.7 -- -- -- -- 0 -- -- 94
2017-11-20 05:00:00 4.6 -- -- -- -- 0 -- -- 95
2017-11-20 04:00:00 4.6 -- -- -- -- 0 -- -- 94
2017-11-20 03:00:00 4.9 -- -- -- -- 0 -- -- 93
2017-11-20 02:00:00 5.5 -- -- -- -- 0 -- -- 93
2017-11-20 01:00:00 6.1 -- -- -- -- 0 -- -- 93
2017-11-20 00:00:00 6.5 -- -- -- -- 0 -- -- 91
2017-11-19 23:00:00 7.1 -- -- -- -- 0 -- -- 91
2017-11-19 22:00:00 7.6 -- -- -- -- 0 -- -- 89
2017-11-19 21:00:00 8.5 -- -- -- -- 0 -- -- 88
2017-11-19 20:00:00 9.8 -- -- -- -- 0 -- -- 87
2017-11-19 19:00:00 12.1 -- -- -- -- 0 -- -- 82
2017-11-19 18:00:00 14.9 -- -- -- -- 0 -- -- 71
2017-11-19 17:00:00 19.2 -- -- -- -- 0 -- -- 51
2017-11-19 16:00:00 17.7 -- -- -- -- 0 -- -- 59
2017-11-19 15:00:00 16.4 -- -- -- -- 0 -- -- 64
2017-11-19 14:00:00 15.3 -- -- -- -- 0 -- -- 68
2017-11-19 13:00:00 14.3 -- -- -- -- 0 -- -- 71
2017-11-19 12:00:00 11.4 -- -- -- -- 0 -- -- 81
2017-11-19 11:00:00 8.2 -- -- -- -- 0 -- -- 97
2017-11-19 10:00:00 5.1 -- -- -- -- 0 -- -- 97
2017-11-19 09:00:00 3.6 -- -- -- -- 0 -- -- 95
2017-11-19 08:00:00 3.8 -- -- -- -- 0 -- -- 95
2017-11-19 07:00:00 4.2 -- -- -- -- 0 -- -- 95
2017-11-19 06:00:00 4.5 -- -- -- -- 0 -- -- 95
2017-11-19 05:00:00 4.7 -- -- -- -- 0 -- -- 94
2017-11-19 04:00:00 5.2 -- -- -- -- 0 -- -- 93
2017-11-19 03:00:00 5.6 -- -- -- -- 0 -- -- 93
2017-11-19 02:00:00 6.1 -- -- -- -- 0 -- -- 92
2017-11-19 01:00:00 6.7 -- -- -- -- 0 -- -- 91
2017-11-19 00:00:00 7.3 -- -- -- -- 0 -- -- 91
2017-11-18 23:00:00 8 -- -- -- -- 0 -- -- 90
2017-11-18 22:00:00 8.8 -- -- -- -- 0 -- -- 88
2017-11-18 21:00:00 9.8 -- -- -- -- 0 -- -- 86
2017-11-18 20:00:00 11.3 -- -- -- -- 0 -- -- 83
2017-11-18 19:00:00 13.2 -- -- -- -- 0 -- -- 79
2017-11-18 18:00:00 16.1 -- -- -- -- 0 -- -- 73
2017-11-18 17:00:00 19.7 -- -- -- -- 0 -- -- 58
2017-11-18 16:00:00 19.6 -- -- -- -- 0 -- -- 55
2017-11-18 15:00:00 18.2 -- -- -- -- 0 -- -- 57
2017-11-18 14:00:00 17.6 -- -- -- -- 0 -- -- 62
2017-11-18 13:00:00 16.2 -- -- -- -- 0 -- -- 66
2017-11-18 12:00:00 13.2 -- -- -- -- 0 -- -- 75
2017-11-18 11:00:00 9.1 -- -- -- -- 0 -- -- 97
2017-11-18 10:00:00 5.7 -- -- -- -- 0 -- -- 97
2017-11-18 09:00:00 3.9 -- -- -- -- 0 -- -- 95
2017-11-18 08:00:00 4.2 -- -- -- -- 0 -- -- 95
2017-11-18 07:00:00 4.5 -- -- -- -- 0 -- -- 95
2017-11-18 06:00:00 4.9 -- -- -- -- 0 -- -- 94
2017-11-18 05:00:00 5.4 -- -- -- -- 0 -- -- 94
2017-11-18 04:00:00 5.4 -- -- -- -- 0 -- -- 93
2017-11-18 03:00:00 6 -- -- -- -- 0 -- -- 93
2017-11-18 02:00:00 6.7 -- -- -- -- 0 -- -- 92
2017-11-18 01:00:00 7.2 -- -- -- -- 0 -- -- 91
2017-11-18 00:00:00 8 -- -- -- -- 0 -- -- 90
2017-11-17 23:00:00 9.2 -- -- -- -- 0 -- -- 90
2017-11-17 22:00:00 9.9 -- -- -- -- 0 -- -- 90
2017-11-17 21:00:00 10.8 -- -- -- -- 0 -- -- 88
2017-11-17 20:00:00 11.7 -- -- -- -- 0 -- -- 86
2017-11-17 19:00:00 13.2 -- -- -- -- 0 -- -- 83
2017-11-17 18:00:00 15.2 -- -- -- -- 0 -- -- 76
2017-11-17 17:00:00 18.2 -- -- -- -- 0 -- -- 59
2017-11-17 16:00:00 17.6 -- -- -- -- 0 -- -- 63
2017-11-17 15:00:00 17.3 -- -- -- -- 0 -- -- 63
2017-11-17 14:00:00 16.1 -- -- -- -- 0 -- -- 66
2017-11-17 13:00:00 14.8 -- -- -- -- 0 -- -- 71
2017-11-17 12:00:00 11.8 -- -- -- -- 0 -- -- 90
2017-11-17 11:00:00 8.4 -- -- -- -- 0 -- -- 98
2017-11-17 10:00:00 5.1 -- -- -- -- 0 -- -- 97
2017-11-17 09:00:00 3.4 -- -- -- -- 0 -- -- 96
2017-11-17 08:00:00 3.3 -- -- -- -- 0 -- -- 96
2017-11-17 07:00:00 3.4 -- -- -- -- 0 -- -- 95
2017-11-17 06:00:00 3.8 -- -- -- -- 0 -- -- 95
2017-11-17 05:00:00 4.3 -- -- -- -- 0 -- -- 95
2017-11-17 04:00:00 4.5 -- -- -- -- 0 -- -- 94
2017-11-17 03:00:00 4.9 -- -- -- -- 0 -- -- 94
2017-11-17 02:00:00 5.5 -- -- -- -- 0 -- -- 93
2017-11-17 01:00:00 6.3 -- -- -- -- 0 -- -- 92
2017-11-17 00:00:00 6.9 -- -- -- -- 0 -- -- 91
2017-11-16 23:00:00 7.5 -- -- -- -- 0 -- -- 91
2017-11-16 22:00:00 8.1 -- -- -- -- 0 -- -- 89
2017-11-16 21:00:00 9.1 -- -- -- -- 0 -- -- 88
2017-11-16 20:00:00 10.4 -- -- -- -- 0 -- -- 86
2017-11-16 19:00:00 12.2 -- -- -- -- 0 -- -- 82
2017-11-16 18:00:00 14.6 -- -- -- -- 0 -- -- 75
2017-11-16 17:00:00 18 -- -- -- -- 0 -- -- 62
2017-11-16 16:00:00 16.2 -- -- -- -- 0 -- -- 68
2017-11-16 15:00:00 14.5 -- -- -- -- 0 -- -- 68
2017-11-16 14:00:00 13.5 -- -- -- -- 0 -- -- 71
2017-11-16 13:00:00 13.1 -- -- -- -- 0 -- -- 71
2017-11-16 12:00:00 10.4 -- -- -- -- 0 -- -- 82
2017-11-16 11:00:00 7 -- -- -- -- 0 -- -- 97
2017-11-16 10:00:00 3.6 -- -- -- -- 0 -- -- 97
2017-11-16 09:00:00 2 -- -- -- -- 0 -- -- 95
2017-11-16 08:00:00 2.1 -- -- -- -- 0 -- -- 95
2017-11-16 07:00:00 2.2 -- -- -- -- 0 -- -- 94
2017-11-16 06:00:00 2.5 -- -- -- -- 0 -- -- 94
2017-11-16 05:00:00 2.6 -- -- -- -- 0 -- -- 93
2017-11-16 04:00:00 2.9 -- -- -- -- 0 -- -- 92
2017-11-16 03:00:00 3.2 -- -- -- -- 0 -- -- 91
2017-11-16 02:00:00 3.8 -- -- -- -- 0 -- -- 89
2017-11-16 01:00:00 4.5 -- -- -- -- 0 -- -- 88
2017-11-16 00:00:00 5 -- -- -- -- 0 -- -- 87
2017-11-15 23:00:00 5.8 -- -- -- -- 0 -- -- 85
2017-11-15 22:00:00 6.4 -- -- -- -- 0 -- -- 85
2017-11-15 21:00:00 7.4 -- -- -- -- 0 -- -- 82
2017-11-15 20:00:00 8.4 -- -- -- -- 0 -- -- 78
2017-11-15 19:00:00 10.3 -- -- -- -- 0 -- -- 76
2017-11-15 18:00:00 14 -- -- -- -- 0 -- -- 66
2017-11-15 17:00:00 17.2 -- -- -- -- 0 -- -- 57
2017-11-15 16:00:00 17 -- -- -- -- 0 -- -- 56
2017-11-15 15:00:00 15.8 -- -- -- -- 0 -- -- 55
2017-11-15 14:00:00 14.9 -- -- -- -- 0 -- -- 64
2017-11-15 13:00:00 13.6 -- -- -- -- 0 -- -- 72
2017-11-15 12:00:00 11.4 -- -- -- -- 0 -- -- 79
2017-11-15 11:00:00 8.5 -- -- -- -- 0 -- -- 94
2017-11-15 10:00:00 5.7 -- -- -- -- 0 -- -- 96
2017-11-15 09:00:00 3.9 -- -- -- -- 0 -- -- 94
2017-11-15 08:00:00 4.5 -- -- -- -- 0 -- -- 94
2017-11-15 07:00:00 4.2 -- -- -- -- 0 -- -- 93
2017-11-15 06:00:00 4.5 -- -- -- -- 0 -- -- 93
2017-11-15 05:00:00 4.9 -- -- -- -- 0 -- -- 93
2017-11-15 04:00:00 5.1 -- -- -- -- 0 -- -- 93
2017-11-15 03:00:00 5.3 -- -- -- -- 0 -- -- 91
2017-11-15 02:00:00 5.8 -- -- -- -- 0 -- -- 91
2017-11-15 01:00:00 6 -- -- -- -- 0 -- -- 92
2017-11-15 00:00:00 6 -- -- -- -- 0 -- -- 90
2017-11-14 23:00:00 6.6 -- -- -- -- 0 -- -- 89
2017-11-14 22:00:00 7 -- -- -- -- 0 -- -- 87
2017-11-14 21:00:00 8.2 -- -- -- -- 0 -- -- 84
2017-11-14 20:00:00 9.3 -- -- -- -- 0 -- -- 83
2017-11-14 19:00:00 10.7 -- -- -- -- 0 -- -- 79
2017-11-14 18:00:00 13.8 -- -- -- -- 0 -- -- 67
2017-11-14 17:00:00 16.7 -- -- -- -- 0 -- -- 54
2017-11-14 16:00:00 16.6 -- -- -- -- 0 -- -- 55
2017-11-14 15:00:00 16 -- -- -- -- 0 -- -- 47
2017-11-14 14:00:00 14.5 -- -- -- -- 0 -- -- 51
2017-11-14 13:00:00 13.5 -- -- -- -- 0 -- -- 53
2017-11-14 12:00:00 11.8 -- -- -- -- 0 -- -- 63
2017-11-14 11:00:00 9.5 -- -- -- -- 0 -- -- 75
2017-11-14 10:00:00 5.8 -- -- -- -- 0 -- -- 89
2017-11-14 09:00:00 4.2 -- -- -- -- 0 -- -- 88
2017-11-14 08:00:00 4.6 -- -- -- -- 0 -- -- 86
2017-11-14 07:00:00 5.2 -- -- -- -- 0 -- -- 83
2017-11-14 06:00:00 5.9 -- -- -- -- 0 -- -- 80
2017-11-14 05:00:00 6.7 -- -- -- -- 0 -- -- 75
2017-11-14 04:00:00 7.7 -- -- -- -- 0 -- -- 71
2017-11-14 03:00:00 10.3 -- -- -- -- 0 -- -- 59
2017-11-14 02:00:00 10.7 -- -- -- -- 0 -- -- 57
2017-11-14 01:00:00 10.5 -- -- -- -- 0 -- -- 58
2017-11-14 00:00:00 10.9 -- -- -- -- 0 -- -- 56
2017-11-13 23:00:00 11 -- -- -- -- 0 -- -- 57
2017-11-13 22:00:00 11.5 -- -- -- -- 0 -- -- 57
2017-11-13 21:00:00 12 -- -- -- -- 0 -- -- 56
2017-11-13 20:00:00 12.4 -- -- -- -- 0 -- -- 57
2017-11-13 19:00:00 12.9 -- -- -- -- 0 -- -- 61
2017-11-13 18:00:00 14.3 -- -- -- -- 0 -- -- 60
2017-11-13 17:00:00 16.1 -- -- -- -- 0 -- -- 56
2017-11-13 16:00:00 16.3 -- -- -- -- 0 -- -- 55
2017-11-13 15:00:00 15.9 -- -- -- -- 0 -- -- 58
2017-11-13 14:00:00 15.3 -- -- -- -- 0 -- -- 60
2017-11-13 13:00:00 15 -- -- -- -- 0 -- -- 61
2017-11-13 12:00:00 13.9 -- -- -- -- 0 -- -- 64
2017-11-13 11:00:00 13.1 -- -- -- -- 0 -- -- 69
2017-11-13 10:00:00 12 -- -- -- -- 0 -- -- 75
2017-11-13 09:00:00 11.7 -- -- -- -- 0 -- -- 75
2017-11-13 08:00:00 11.6 -- -- -- -- 0 -- -- 75
2017-11-13 07:00:00 11.6 -- -- -- -- 0 -- -- 78
2017-11-13 06:00:00 12 -- -- -- -- 0 -- -- 84
2017-11-13 05:00:00 12.2 -- -- -- -- 0 -- -- 89
2017-11-13 04:00:00 12.6 -- -- -- -- 0 -- -- 89
2017-11-13 03:00:00 13.2 -- -- -- -- 0 -- -- 88
2017-11-13 02:00:00 13.2 -- -- -- -- 0 -- -- 90
2017-11-13 01:00:00 12.7 -- -- -- -- 0 -- -- 91
2017-11-13 00:00:00 13 -- -- -- -- 0 -- -- 95
2017-11-12 23:00:00 12.4 -- -- -- -- 0 -- -- 95
2017-11-12 22:00:00 12.6 -- -- -- -- 0 -- -- 94
2017-11-12 21:00:00 13.4 -- -- -- -- 0 -- -- 94
2017-11-12 20:00:00 13.7 -- -- -- -- 0 -- -- 94
2017-11-12 19:00:00 13.7 -- -- -- -- 0 -- -- 94
2017-11-12 18:00:00 13.8 -- -- -- -- 0 -- -- 94
2017-11-12 17:00:00 14 -- -- -- -- 0 -- -- 93
2017-11-12 16:00:00 14.2 -- -- -- -- 0 -- -- 91
2017-11-12 15:00:00 14.9 -- -- -- -- 0 -- -- 86
2017-11-12 14:00:00 14.8 -- -- -- -- 0 -- -- 84
2017-11-12 13:00:00 14.1 -- -- -- -- 0 -- -- 84
2017-11-12 12:00:00 13.9 -- -- -- -- 0 -- -- 83
2017-11-12 11:00:00 13.3 -- -- -- -- 0 -- -- 85
2017-11-12 10:00:00 12.6 -- -- -- -- 0 -- -- 92
2017-11-12 09:00:00 12.4 -- -- -- -- 0 -- -- 92
2017-11-12 08:00:00 12.4 -- -- -- -- 0 -- -- 91
2017-11-12 07:00:00 12.5 -- -- -- -- 0 -- -- 91
2017-11-12 06:00:00 12.5 -- -- -- -- 0 -- -- 91
2017-11-12 05:00:00 12.5 -- -- -- -- 0 -- -- 91
2017-11-12 04:00:00 12.5 -- -- -- -- 0 -- -- 90
2017-11-12 03:00:00 12.5 -- -- -- -- 0 -- -- 89
2017-11-12 02:00:00 12.4 -- -- -- -- 0 -- -- 89
2017-11-12 01:00:00 12.4 -- -- -- -- 0 -- -- 89
2017-11-12 00:00:00 11.6 -- -- -- -- 0 -- -- 89
2017-11-11 23:00:00 11.3 -- -- -- -- 0 -- -- 88
2017-11-11 22:00:00 11.2 -- -- -- -- 0 -- -- 86
2017-11-11 21:00:00 10.6 -- -- -- -- 0 -- -- 87
2017-11-11 20:00:00 11.8 -- -- -- -- 0 -- -- 82
2017-11-11 19:00:00 14.1 -- -- -- -- 0 -- -- 76
2017-11-11 18:00:00 15.9 -- -- -- -- 0 -- -- 71
2017-11-11 17:00:00 17 -- -- -- -- 0 -- -- 67
2017-11-11 16:00:00 17 -- -- -- -- 0 -- -- 66
2017-11-11 15:00:00 17.1 -- -- -- -- 0 -- -- 64
2017-11-11 14:00:00 16.7 -- -- -- -- 0 -- -- 65
2017-11-11 13:00:00 16.2 -- -- -- -- 0 -- -- 65
2017-11-11 12:00:00 15.5 -- -- -- -- 0 -- -- 69
2017-11-11 11:00:00 14.5 -- -- -- -- 0 -- -- 71
2017-11-11 10:00:00 13.2 -- -- -- -- 0 -- -- 75
2017-11-11 09:00:00 12.9 -- -- -- -- 0 -- -- 75
2017-11-11 08:00:00 12.8 -- -- -- -- 0 -- -- 76
2017-11-11 07:00:00 12.7 -- -- -- -- 0 -- -- 76
2017-11-11 06:00:00 13 -- -- -- -- 0 -- -- 77
2017-11-11 05:00:00 13.2 -- -- -- -- 0 -- -- 75
2017-11-11 04:00:00 13.1 -- -- -- -- 0 -- -- 74
2017-11-11 03:00:00 13.4 -- -- -- -- 0 -- -- 76
2017-11-11 02:00:00 13.6 -- -- -- -- 0 -- -- 78
2017-11-11 01:00:00 13.7 -- -- -- -- 0 -- -- 78
2017-11-11 00:00:00 13.5 -- -- -- -- 0 -- -- 78
2017-11-10 23:00:00 13.8 -- -- -- -- 0 -- -- 78
2017-11-10 22:00:00 13.8 -- -- -- -- 0 -- -- 77
2017-11-10 21:00:00 13.4 -- -- -- -- 0 -- -- 74
2017-11-10 20:00:00 13.5 -- -- -- -- 0 -- -- 70
2017-11-10 19:00:00 13.9 -- -- -- -- 0 -- -- 73
2017-11-10 18:00:00 15 -- -- -- -- 0 -- -- 70
2017-11-10 17:00:00 16.7 -- -- -- -- 0 -- -- 64
2017-11-10 16:00:00 17.4 -- -- -- -- 0 -- -- 65
2017-11-10 15:00:00 16.9 -- -- -- -- 0 -- -- 69
2017-11-10 14:00:00 17.2 -- -- -- -- 0 -- -- 70
2017-11-10 13:00:00 16.9 -- -- -- -- 0 -- -- 75
2017-11-10 12:00:00 15.7 -- -- -- -- 0 -- -- 80
2017-11-10 11:00:00 14.6 -- -- -- -- 0 -- -- 84
2017-11-10 10:00:00 13 -- -- -- -- 0 -- -- 95
2017-11-10 09:00:00 10.2 -- -- -- -- 0 -- -- 94
2017-11-10 08:00:00 10.7 -- -- -- -- 0 -- -- 93
2017-11-10 07:00:00 10.9 -- -- -- -- 0 -- -- 92
2017-11-10 06:00:00 11 -- -- -- -- 0 -- -- 92
2017-11-10 05:00:00 11.1 -- -- -- -- 0 -- -- 92
2017-11-10 04:00:00 11.3 -- -- -- -- 0 -- -- 88
2017-11-10 03:00:00 12.3 -- -- -- -- 0 -- -- 85
2017-11-10 02:00:00 12.3 -- -- -- -- 0 -- -- 85
2017-11-10 01:00:00 12.3 -- -- -- -- 0 -- -- 85
2017-11-10 00:00:00 12.3 -- -- -- -- 0 -- -- 85
2017-11-09 23:00:00 12.5 -- -- -- -- 0 -- -- 87
2017-11-09 22:00:00 12.6 -- -- -- -- 0 -- -- 86
2017-11-09 21:00:00 12.7 -- -- -- -- 0 -- -- 87
2017-11-09 20:00:00 12.6 -- -- -- -- 0 -- -- 92
2017-11-09 19:00:00 12.5 -- -- -- -- 0 -- -- 94
2017-11-09 18:00:00 12.7 -- -- -- -- 0 -- -- 94
2017-11-09 17:00:00 12.6 -- -- -- -- 0 -- -- 93
2017-11-09 16:00:00 12.5 -- -- -- -- 0 -- -- 92
2017-11-09 15:00:00 12.2 -- -- -- -- 0 -- -- 92
2017-11-09 14:00:00 11.6 -- -- -- -- 0 -- -- 91
2017-11-09 13:00:00 11.4 -- -- -- -- 0 -- -- 92
2017-11-09 12:00:00 10.8 -- -- -- -- 0 -- -- 91
2017-11-09 11:00:00 10.1 -- -- -- -- 0 -- -- 92
2017-11-09 10:00:00 9.2 -- -- -- -- 0 -- -- 95
2017-11-09 09:00:00 8 -- -- -- -- 0 -- -- 96
2017-11-09 08:00:00 7.2 -- -- -- -- 0 -- -- 95
2017-11-09 07:00:00 6.5 -- -- -- -- 0 -- -- 95
2017-11-09 06:00:00 6 -- -- -- -- 0 -- -- 93
2017-11-09 05:00:00 6.4 -- -- -- -- 0 -- -- 93
2017-11-09 04:00:00 6.8 -- -- -- -- 0 -- -- 92
2017-11-09 03:00:00 7.1 -- -- -- -- 0 -- -- 91
2017-11-09 02:00:00 7.8 -- -- -- -- 0 -- -- 89
2017-11-09 01:00:00 8.7 -- -- -- -- 0 -- -- 88
2017-11-09 00:00:00 9 -- -- -- -- 0 -- -- 87
2017-11-08 23:00:00 10.7 -- -- -- -- 0 -- -- 80
2017-11-08 22:00:00 11.3 -- -- -- -- 0 -- -- 77
2017-11-08 21:00:00 11.2 -- -- -- -- 0 -- -- 77
2017-11-08 20:00:00 11.3 -- -- -- -- 0 -- -- 75
2017-11-08 19:00:00 11.8 -- -- -- -- 0 -- -- 75
2017-11-08 18:00:00 13.1 -- -- -- -- 0 -- -- 70
2017-11-08 17:00:00 14.2 -- -- -- -- 0 -- -- 65
2017-11-08 16:00:00 14.6 -- -- -- -- 0 -- -- 65
2017-11-08 15:00:00 14.8 -- -- -- -- 0 -- -- 63
2017-11-08 14:00:00 14.1 -- -- -- -- 0 -- -- 64
2017-11-08 13:00:00 13.3 -- -- -- -- 0 -- -- 70
2017-11-08 12:00:00 13.2 -- -- -- -- 0 -- -- 69
2017-11-08 11:00:00 11 -- -- -- -- 0 -- -- 81
2017-11-08 10:00:00 6.7 -- -- -- -- 0 -- -- 96
2017-11-08 09:00:00 5 -- -- -- -- 0 -- -- 94
2017-11-08 08:00:00 5.3 -- -- -- -- 0 -- -- 93
2017-11-08 07:00:00 5.8 -- -- -- -- 0 -- -- 92
2017-11-08 06:00:00 6.7 -- -- -- -- 0 -- -- 92
2017-11-08 05:00:00 6.1 -- -- -- -- 0 -- -- 94
2017-11-08 04:00:00 6 -- -- -- -- 0 -- -- 92
2017-11-08 03:00:00 6.4 -- -- -- -- 0 -- -- 91
2017-11-08 02:00:00 7.1 -- -- -- -- 0 -- -- 89
2017-11-08 01:00:00 8.8 -- -- -- -- 0 -- -- 85
2017-11-08 00:00:00 10 -- -- -- -- 0 -- -- 82
2017-11-07 23:00:00 10.6 -- -- -- -- 0 -- -- 81
2017-11-07 22:00:00 10.5 -- -- -- -- 0 -- -- 82
2017-11-07 21:00:00 11.3 -- -- -- -- 0 -- -- 78
2017-11-07 20:00:00 11.6 -- -- -- -- 0 -- -- 79
2017-11-07 19:00:00 12.1 -- -- -- -- 0 -- -- 78
2017-11-07 18:00:00 13.5 -- -- -- -- 0 -- -- 74
2017-11-07 17:00:00 14 -- -- -- -- 0 -- -- 72
2017-11-07 16:00:00 14.3 -- -- -- -- 0 -- -- 76
2017-11-07 15:00:00 13.2 -- -- -- -- 0 -- -- 85
2017-11-07 14:00:00 12.8 -- -- -- -- 0 -- -- 85
2017-11-07 13:00:00 12.4 -- -- -- -- 0 -- -- 84
2017-11-07 12:00:00 11.5 -- -- -- -- 0 -- -- 86
2017-11-07 11:00:00 9.2 -- -- -- -- 0 -- -- 96
2017-11-07 10:00:00 7 -- -- -- -- 0 -- -- 97
2017-11-07 09:00:00 4.7 -- -- -- -- 0 -- -- 96
2017-11-07 08:00:00 4 -- -- -- -- 0 -- -- 95
2017-11-07 07:00:00 4.1 -- -- -- -- 0 -- -- 94
2017-11-07 06:00:00 4.5 -- -- -- -- 0 -- -- 93
2017-11-07 05:00:00 4.9 -- -- -- -- 0 -- -- 92
2017-11-07 04:00:00 5.4 -- -- -- -- 0 -- -- 92
2017-11-07 03:00:00 6.2 -- -- -- -- 0 -- -- 91
2017-11-07 02:00:00 7 -- -- -- -- 0 -- -- 89
2017-11-07 01:00:00 8 -- -- -- -- 0 -- -- 88
2017-11-07 00:00:00 9.3 -- -- -- -- 0 -- -- 85
2017-11-06 23:00:00 11.3 -- -- -- -- 0 -- -- 80
2017-11-06 22:00:00 11.9 -- -- -- -- 0 -- -- 78
2017-11-06 21:00:00 12.5 -- -- -- -- 0 -- -- 77
2017-11-06 20:00:00 12.4 -- -- -- -- 0 -- -- 76
2017-11-06 19:00:00 13.5 -- -- -- -- 0 -- -- 73
2017-11-06 18:00:00 15.1 -- -- -- -- 0 -- -- 67
2017-11-06 17:00:00 17 -- -- -- -- 0 -- -- 60
2017-11-06 16:00:00 17 -- -- -- -- 0 -- -- 60
2017-11-06 15:00:00 16.2 -- -- -- -- 0 -- -- 64
2017-11-06 14:00:00 15.3 -- -- -- -- 0 -- -- 63
2017-11-06 13:00:00 14.4 -- -- -- -- 0 -- -- 67
2017-11-06 12:00:00 12.8 -- -- -- -- 0 -- -- 78
2017-11-06 11:00:00 10.8 -- -- -- -- 0 -- -- 95
2017-11-06 10:00:00 8.1 -- -- -- -- 0 -- -- 97
2017-11-06 09:00:00 5.9 -- -- -- -- 0 -- -- 95
2017-11-06 08:00:00 5.8 -- -- -- -- 0 -- -- 94
2017-11-06 07:00:00 6.4 -- -- -- -- 0 -- -- 93
2017-11-06 06:00:00 7.4 -- -- -- -- 0 -- -- 93
2017-11-06 05:00:00 7.8 -- -- -- -- 0 -- -- 92
2017-11-06 04:00:00 8.5 -- -- -- -- 0 -- -- 92
2017-11-06 03:00:00 9.4 -- -- -- -- 0 -- -- 92
2017-11-06 02:00:00 9.6 -- -- -- -- 0 -- -- 91
2017-11-06 01:00:00 9.6 -- -- -- -- 0 -- -- 90
2017-11-06 00:00:00 9.9 -- -- -- -- 0 -- -- 91
2017-11-05 23:00:00 8.8 -- -- -- -- 0 -- -- 90
2017-11-05 22:00:00 9.1 -- -- -- -- 0 -- -- 87
2017-11-05 21:00:00 10.6 -- -- -- -- 0 -- -- 84
2017-11-05 20:00:00 11.6 -- -- -- -- 0 -- -- 79
2017-11-05 19:00:00 12.4 -- -- -- -- 0 -- -- 77
2017-11-05 18:00:00 13.9 -- -- -- -- 0 -- -- 69
2017-11-05 17:00:00 15 -- -- -- -- 0 -- -- 63
2017-11-05 16:00:00 15.6 -- -- -- -- 0 -- -- 62
2017-11-05 15:00:00 14.3 -- -- -- -- 0 -- -- 67
2017-11-05 14:00:00 15.5 -- -- -- -- 0 -- -- 61
2017-11-05 13:00:00 14.7 -- -- -- -- 0 -- -- 67
2017-11-05 12:00:00 14.3 -- -- -- -- 0 -- -- 69
2017-11-05 11:00:00 12.4 -- -- -- -- 0 -- -- 78
2017-11-05 10:00:00 10.8 -- -- -- -- 0 -- -- 86
2017-11-05 09:00:00 9.4 -- -- -- -- 0 -- -- 91
2017-11-05 08:00:00 8.3 -- -- -- -- 0 -- -- 92
2017-11-05 07:00:00 8.4 -- -- -- -- 0 -- -- 90
2017-11-05 06:00:00 8.5 -- -- -- -- 0 -- -- 90
2017-11-05 05:00:00 8.6 -- -- -- -- 0 -- -- 88
2017-11-05 04:00:00 9.3 -- -- -- -- 0 -- -- 85
2017-11-05 03:00:00 11.1 -- -- -- -- 0 -- -- 77
2017-11-05 02:00:00 12.1 -- -- -- -- 0 -- -- 73
2017-11-05 01:00:00 12.2 -- -- -- -- 0 -- -- 74
2017-11-05 00:00:00 12.4 -- -- -- -- 0 -- -- 75
2017-11-04 23:00:00 12.8 -- -- -- -- 0 -- -- 76
2017-11-04 22:00:00 13 -- -- -- -- 0 -- -- 76
2017-11-04 21:00:00 13.5 -- -- -- -- 0.2 -- -- 76
2017-11-04 20:00:00 13.7 -- -- -- -- 0 -- -- 75
2017-11-04 19:00:00 14.1 -- -- -- -- 0 -- -- 73
2017-11-04 18:00:00 14.6 -- -- -- -- 0 -- -- 76
2017-11-04 17:00:00 16.4 -- -- -- -- 0 -- -- 75
2017-11-04 16:00:00 17.6 -- -- -- -- 0 -- -- 69
2017-11-04 15:00:00 18.1 -- -- -- -- 0 -- -- 68
2017-11-04 14:00:00 18.6 -- -- -- -- 0 -- -- 68
2017-11-04 13:00:00 18.1 -- -- -- -- 0 -- -- 68
2017-11-04 12:00:00 16.8 -- -- -- -- 0 -- -- 78
2017-11-04 11:00:00 15.6 -- -- -- -- 0 -- -- 83
2017-11-04 10:00:00 14.7 -- -- -- -- 0 -- -- 84
2017-11-04 09:00:00 13.4 -- -- -- -- 0 -- -- 88
2017-11-04 08:00:00 13.4 -- -- -- -- 0 -- -- 88
2017-11-04 07:00:00 13 -- -- -- -- 0 -- -- 92
2017-11-04 06:00:00 12 -- -- -- -- 0 -- -- 95
2017-11-04 05:00:00 12.3 -- -- -- -- 0 -- -- 95
2017-11-04 04:00:00 12.5 -- -- -- -- 0 -- -- 96
2017-11-04 03:00:00 12.6 -- -- -- -- 0 -- -- 96
2017-11-04 02:00:00 12.6 -- -- -- -- 0 -- -- 96
2017-11-04 01:00:00 12.9 -- -- -- -- 0 -- -- 96
2017-11-04 00:00:00 13.4 -- -- -- -- 0 -- -- 96
2017-11-03 23:00:00 13.7 -- -- -- -- 0.2 -- -- 96
2017-11-03 22:00:00 13.8 -- -- -- -- 0.6 -- -- 95
2017-11-03 21:00:00 14 -- -- -- -- 1.6 -- -- 95
2017-11-03 20:00:00 13.9 -- -- -- -- 0.2 -- -- 95
2017-11-03 19:00:00 14.1 -- -- -- -- 0.4 -- -- 94
2017-11-03 18:00:00 14.3 -- -- -- -- 0.4 -- -- 94
2017-11-03 17:00:00 14.8 -- -- -- -- 0.2 -- -- 92
2017-11-03 16:00:00 15.5 -- -- -- -- 0 -- -- 87
2017-11-03 15:00:00 15.9 -- -- -- -- 0 -- -- 83
2017-11-03 14:00:00 16 -- -- -- -- 0 -- -- 77
2017-11-03 13:00:00 15.6 -- -- -- -- 0 -- -- 81
2017-11-03 12:00:00 14.7 -- -- -- -- 0 -- -- 87
2017-11-03 11:00:00 13.4 -- -- -- -- 0.2 -- -- 96
2017-11-03 10:00:00 12.3 -- -- -- -- 0.4 -- -- 96
2017-11-03 09:00:00 12.1 -- -- -- -- 2.4 -- -- 96
2017-11-03 08:00:00 12.2 -- -- -- -- 0.8 -- -- 95
2017-11-03 07:00:00 12.3 -- -- -- -- 1.4 -- -- 95
2017-11-03 06:00:00 13.1 -- -- -- -- 11.4 -- -- 94
2017-11-03 05:00:00 13.3 -- -- -- -- 0 -- -- 95
2017-11-03 04:00:00 13.7 -- -- -- -- 0 -- -- 95
2017-11-03 03:00:00 14.2 -- -- -- -- 0.6 -- -- 94
2017-11-03 02:00:00 14.6 -- -- -- -- 0 -- -- 94
2017-11-03 01:00:00 14.7 -- -- -- -- 0 -- -- 93
2017-11-03 00:00:00 15 -- -- -- -- 0.2 -- -- 92
2017-11-02 23:00:00 15.4 -- -- -- -- 0 -- -- 90
2017-11-02 22:00:00 15.7 -- -- -- -- 0 -- -- 89
2017-11-02 21:00:00 16 -- -- -- -- 0 -- -- 88
2017-11-02 20:00:00 16.1 -- -- -- -- 0 -- -- 85
2017-11-02 19:00:00 16.1 -- -- -- -- 0 -- -- 86
2017-11-02 18:00:00 16.2 -- -- -- -- 0 -- -- 85
2017-11-02 17:00:00 16.5 -- -- -- -- 0 -- -- 88
2017-11-02 16:00:00 17.4 -- -- -- -- 0 -- -- 83
2017-11-02 15:00:00 17.9 -- -- -- -- 0 -- -- 82
2017-11-02 14:00:00 16.9 -- -- -- -- 0 -- -- 82
2017-11-02 13:00:00 17 -- -- -- -- 0 -- -- 81
2017-11-02 12:00:00 15.5 -- -- -- -- 0 -- -- 94
2017-11-02 11:00:00 14.4 -- -- -- -- 0 -- -- 95
2017-11-02 10:00:00 14.1 -- -- -- -- 2.8 -- -- 94
2017-11-02 09:00:00 14.4 -- -- -- -- 8.8 -- -- 92
2017-11-02 08:00:00 15.3 -- -- -- -- 2 -- -- 94
2017-11-02 07:00:00 15.4 -- -- -- -- 0 -- -- 93
2017-11-02 06:00:00 15.8 -- -- -- -- 0 -- -- 92
2017-11-02 05:00:00 16 -- -- -- -- 0 -- -- 93
2017-11-02 04:00:00 15.9 -- -- -- -- 0 -- -- 93
2017-11-02 03:00:00 16.1 -- -- -- -- 0 -- -- 93
2017-11-02 02:00:00 16.4 -- -- -- -- 0 -- -- 92
2017-11-02 01:00:00 15.9 -- -- -- -- 0 -- -- 94
2017-11-02 00:00:00 15.6 -- -- -- -- 0.4 -- -- 94
2017-11-01 23:00:00 15.8 -- -- -- -- 2.2 -- -- 94
2017-11-01 22:00:00 15.3 -- -- -- -- 0 -- -- 93
2017-11-01 21:00:00 15.5 -- -- -- -- 0 -- -- 92
2017-11-01 20:00:00 15.8 -- -- -- -- 0 -- -- 90
2017-11-01 19:00:00 15.7 -- -- -- -- 0 -- -- 90
2017-11-01 18:00:00 15.9 -- -- -- -- 0.6 -- -- 89
2017-11-01 17:00:00 16.4 -- -- -- -- 0 -- -- 84
2017-11-01 16:00:00 16.8 -- -- -- -- 0 -- -- 78
2017-11-01 15:00:00 16.8 -- -- -- -- 0 -- -- 82
2017-11-01 14:00:00 16.9 -- -- -- -- 0 -- -- 80
2017-11-01 13:00:00 16.8 -- -- -- -- 0 -- -- 80
2017-11-01 12:00:00 15.9 -- -- -- -- 0 -- -- 78
2017-11-01 11:00:00 14.7 -- -- -- -- 0 -- -- 87
2017-11-01 10:00:00 13.4 -- -- -- -- 0 -- -- 89
2017-11-01 09:00:00 12.9 -- -- -- -- 0 -- -- 88
2017-11-01 08:00:00 11.7 -- -- -- -- 0 -- -- 88
2017-11-01 07:00:00 10.9 -- -- -- -- 0 -- -- 89
2017-11-01 06:00:00 10 -- -- -- -- 0 -- -- 90
2017-11-01 05:00:00 9.3 -- -- -- -- 0 -- -- 88
2017-11-01 04:00:00 9.3 -- -- -- -- 0 -- -- 87
2017-11-01 03:00:00 9.1 -- -- -- -- 0 -- -- 86
2017-11-01 02:00:00 9.3 -- -- -- -- 0 -- -- 85
2017-11-01 01:00:00 9.4 -- -- -- -- 0 -- -- 83
2017-11-01 00:00:00 9.7 -- -- -- -- 0 -- -- 82
2017-10-31 23:00:00 10.3 -- -- -- -- 0 -- -- 80
2017-10-31 22:00:00 10.7 -- -- -- -- 0 -- -- 79
2017-10-31 21:00:00 11.6 -- -- -- -- 0 -- -- 76
2017-10-31 20:00:00 13.3 -- -- -- -- 0 -- -- 73
2017-10-31 19:00:00 15.2 -- -- -- -- 0 -- -- 73
2017-10-31 18:00:00 17.7 -- -- -- -- 0 -- -- 66
2017-10-31 17:00:00 20.1 -- -- -- -- 0 -- -- 50
2017-10-31 16:00:00 21.4 -- -- -- -- 0 -- -- 40
2017-10-31 15:00:00 19.4 -- -- -- -- 0 -- -- 52
2017-10-31 14:00:00 19.9 -- -- -- -- 0 -- -- 47
2017-10-31 13:00:00 18.4 -- -- -- -- 0 -- -- 57
2017-10-31 12:00:00 16.5 -- -- -- -- 0 -- -- 62
2017-10-31 11:00:00 14.6 -- -- -- -- 0 -- -- 71
2017-10-31 10:00:00 10.5 -- -- -- -- 0 -- -- 92
2017-10-31 09:00:00 8.1 -- -- -- -- 0 -- -- 91
2017-10-31 08:00:00 8 -- -- -- -- 0 -- -- 90
2017-10-31 07:00:00 8.4 -- -- -- -- 0 -- -- 89
2017-10-31 06:00:00 9.2 -- -- -- -- 0 -- -- 87
2017-10-31 05:00:00 9.8 -- -- -- -- 0 -- -- 85
2017-10-31 04:00:00 10.6 -- -- -- -- 0 -- -- 82
2017-10-31 03:00:00 11.6 -- -- -- -- 0 -- -- 79
2017-10-31 02:00:00 12.3 -- -- -- -- 0 -- -- 77
2017-10-31 01:00:00 14.2 -- -- -- -- 0 -- -- 70
2017-10-31 00:00:00 15.3 -- -- -- -- 0 -- -- 66
2017-10-30 23:00:00 15.5 -- -- -- -- 0 -- -- 66
2017-10-30 22:00:00 15.9 -- -- -- -- 0 -- -- 64
2017-10-30 21:00:00 16.1 -- -- -- -- 0 -- -- 64
2017-10-30 20:00:00 16.6 -- -- -- -- 0 -- -- 63
2017-10-30 19:00:00 17.5 -- -- -- -- 0 -- -- 61
2017-10-30 18:00:00 18.8 -- -- -- -- 0 -- -- 57
2017-10-30 17:00:00 19.9 -- -- -- -- 0 -- -- 53
2017-10-30 16:00:00 20.3 -- -- -- -- 0 -- -- 52
2017-10-30 15:00:00 20.3 -- -- -- -- 0 -- -- 54
2017-10-30 14:00:00 19.6 -- -- -- -- 0 -- -- 57
2017-10-30 13:00:00 19 -- -- -- -- 0 -- -- 62
2017-10-30 12:00:00 18.5 -- -- -- -- 0 -- -- 63
2017-10-30 11:00:00 17.8 -- -- -- -- 0 -- -- 65
2017-10-30 10:00:00 17.1 -- -- -- -- 0 -- -- 66
2017-10-30 09:00:00 15.9 -- -- -- -- 0 -- -- 72
2017-10-30 08:00:00 15.7 -- -- -- -- 0 -- -- 71
2017-10-30 07:00:00 15.7 -- -- -- -- 0 -- -- 71
2017-10-30 06:00:00 15.7 -- -- -- -- 0 -- -- 70
2017-10-30 05:00:00 15.6 -- -- -- -- 0 -- -- 69
2017-10-30 04:00:00 15.7 -- -- -- -- 0 -- -- 68
2017-10-30 03:00:00 15.8 -- -- -- -- 0 -- -- 69
2017-10-30 02:00:00 15.7 -- -- -- -- 0 -- -- 73
2017-10-30 01:00:00 15.7 -- -- -- -- 0 -- -- 72
2017-10-30 00:00:00 16.1 -- -- -- -- 0 -- -- 70
2017-10-29 23:00:00 16.3 -- -- -- -- 0 -- -- 69
2017-10-29 22:00:00 16.6 -- -- -- -- 0 -- -- 68
2017-10-29 21:00:00 16.6 -- -- -- -- 0 -- -- 68
2017-10-29 20:00:00 17.3 -- -- -- -- 0 -- -- 67
2017-10-29 19:00:00 18.5 -- -- -- -- 0 -- -- 64
2017-10-29 18:00:00 20.5 -- -- -- -- 0 -- -- 59
2017-10-29 17:00:00 22.3 -- -- -- -- 0 -- -- 55
2017-10-29 16:00:00 22.9 -- -- -- -- 0 -- -- 53
2017-10-29 15:00:00 22.5 -- -- -- -- 0 -- -- 52
2017-10-29 14:00:00 22.2 -- -- -- -- 0 -- -- 50
2017-10-29 13:00:00 21.5 -- -- -- -- 0 -- -- 52
2017-10-29 12:00:00 19.9 -- -- -- -- 0 -- -- 57
2017-10-29 11:00:00 18.4 -- -- -- -- 0 -- -- 62
2017-10-29 10:00:00 17 -- -- -- -- 0 -- -- 66
2017-10-29 09:00:00 15.9 -- -- -- -- 0 -- -- 68
2017-10-29 08:00:00 13.4 -- -- -- -- 0 -- -- 73
2017-10-29 07:00:00 15.4 -- -- -- -- 0 -- -- 69
2017-10-29 06:00:00 15.6 -- -- -- -- 0 -- -- 67
2017-10-29 05:00:00 16.2 -- -- -- -- 0 -- -- 65
2017-10-29 04:00:00 16.4 -- -- -- -- 0 -- -- 63
2017-10-29 03:00:00 16.7 -- -- -- -- 0 -- -- 61
2017-10-29 02:00:00 18 -- -- -- -- 0 -- -- 54
2017-10-29 01:00:00 19.9 -- -- -- -- 0 -- -- 43
2017-10-29 00:00:00 17.9 -- -- -- -- 0 -- -- 55
2017-10-28 23:00:00 19.4 -- -- -- -- 0 -- -- 54
2017-10-28 22:00:00 21 -- -- -- -- 0 -- -- 48
2017-10-28 21:00:00 21.6 -- -- -- -- 0 -- -- 50
2017-10-28 20:00:00 22.8 -- -- -- -- 0 -- -- 48
2017-10-28 19:00:00 24.7 -- -- -- -- 0 -- -- 46
2017-10-28 18:00:00 26.5 -- -- -- -- 0 -- -- 38
2017-10-28 17:00:00 27.4 -- -- -- -- 0 -- -- 37
2017-10-28 16:00:00 26.3 -- -- -- -- 0 -- -- 38
2017-10-28 15:00:00 24.6 -- -- -- -- 0 -- -- 45
2017-10-28 14:00:00 24.4 -- -- -- -- 0 -- -- 39
2017-10-28 13:00:00 22.6 -- -- -- -- 0 -- -- 42
2017-10-28 12:00:00 21 -- -- -- -- 0 -- -- 52
2017-10-28 11:00:00 19.3 -- -- -- -- 0 -- -- 58
2017-10-28 10:00:00 16.5 -- -- -- -- 0 -- -- 65
2017-10-28 09:00:00 16.5 -- -- -- -- 0 -- -- 62
2017-10-28 08:00:00 18.5 -- -- -- -- 0 -- -- 56
2017-10-28 07:00:00 18.8 -- -- -- -- 0 -- -- 53
2017-10-28 06:00:00 18.4 -- -- -- -- 0 -- -- 54
2017-10-28 05:00:00 16.3 -- -- -- -- 0 -- -- 61
2017-10-28 04:00:00 14.6 -- -- -- -- 0 -- -- 72
2017-10-28 03:00:00 16.1 -- -- -- -- 0 -- -- 65
2017-10-28 02:00:00 17.8 -- -- -- -- 0 -- -- 58
2017-10-28 01:00:00 19.4 -- -- -- -- 0 -- -- 54
2017-10-28 00:00:00 22.4 -- -- -- -- 0 -- -- 44
2017-10-27 23:00:00 21.2 -- -- -- -- 0 -- -- 48
2017-10-27 22:00:00 22.7 -- -- -- -- 0 -- -- 51
2017-10-27 21:00:00 23.3 -- -- -- -- 0 -- -- 47
2017-10-27 20:00:00 23.7 -- -- -- -- 0 -- -- 48
2017-10-27 19:00:00 26.6 -- -- -- -- 0 -- -- 40
2017-10-27 18:00:00 28.3 -- -- -- -- 0 -- -- 39
2017-10-27 17:00:00 28.9 -- -- -- -- 0 -- -- 37
2017-10-27 16:00:00 27.8 -- -- -- -- 0 -- -- 33
2017-10-27 15:00:00 27 -- -- -- -- 0 -- -- 41
2017-10-27 14:00:00 24.9 -- -- -- -- 0 -- -- 52
2017-10-27 13:00:00 20.4 -- -- -- -- 0 -- -- 75
2017-10-27 12:00:00 17.2 -- -- -- -- 0 -- -- 81
2017-10-27 11:00:00 13.8 -- -- -- -- 0 -- -- 93
2017-10-27 10:00:00 10.9 -- -- -- -- 0 -- -- 93
2017-10-27 09:00:00 10.6 -- -- -- -- 0 -- -- 93
2017-10-27 08:00:00 10.9 -- -- -- -- 0 -- -- 92
2017-10-27 07:00:00 11.3 -- -- -- -- 0 -- -- 93
2017-10-27 06:00:00 11.6 -- -- -- -- 0 -- -- 92
2017-10-27 05:00:00 12 -- -- -- -- 0 -- -- 92
2017-10-27 04:00:00 12.4 -- -- -- -- 0 -- -- 90
2017-10-27 03:00:00 12.9 -- -- -- -- 0 -- -- 89
2017-10-27 02:00:00 13.6 -- -- -- -- 0 -- -- 87
2017-10-27 01:00:00 14.1 -- -- -- -- 0 -- -- 85
2017-10-27 00:00:00 14.5 -- -- -- -- 0 -- -- 84
2017-10-26 23:00:00 14.6 -- -- -- -- 0 -- -- 83
2017-10-26 22:00:00 15.3 -- -- -- -- 0 -- -- 81
2017-10-26 21:00:00 16.5 -- -- -- -- 0 -- -- 81
2017-10-26 20:00:00 18.7 -- -- -- -- 0 -- -- 79
2017-10-26 19:00:00 20.6 -- -- -- -- 0 -- -- 68
2017-10-26 18:00:00 21.6 -- -- -- -- 0 -- -- 61
2017-10-26 17:00:00 22.3 -- -- -- -- 0 -- -- 58
2017-10-26 16:00:00 21.9 -- -- -- -- 0 -- -- 61
2017-10-26 15:00:00 21.5 -- -- -- -- 0 -- -- 62
2017-10-26 14:00:00 20.9 -- -- -- -- 0 -- -- 65
2017-10-26 13:00:00 19.5 -- -- -- -- 0 -- -- 70
2017-10-26 12:00:00 18.6 -- -- -- -- 0 -- -- 75
2017-10-26 11:00:00 17.6 -- -- -- -- 0 -- -- 82
2017-10-26 10:00:00 17.1 -- -- -- -- 0 -- -- 87
2017-10-26 09:00:00 17.1 -- -- -- -- 0 -- -- 85
2017-10-26 08:00:00 17.2 -- -- -- -- 0 -- -- 85
2017-10-26 07:00:00 15.4 -- -- -- -- 0 -- -- 93
2017-10-26 06:00:00 14.7 -- -- -- -- 0 -- -- 93
2017-10-26 05:00:00 14.3 -- -- -- -- 0 -- -- 93
2017-10-26 04:00:00 13.8 -- -- -- -- 0 -- -- 93
2017-10-26 03:00:00 13.1 -- -- -- -- 0 -- -- 93
2017-10-26 02:00:00 12.4 -- -- -- -- 0 -- -- 93
2017-10-26 01:00:00 11.8 -- -- -- -- 0 -- -- 91
2017-10-26 00:00:00 11.9 -- -- -- -- 0 -- -- 89
2017-10-25 23:00:00 12.1 -- -- -- -- 0 -- -- 87
2017-10-25 22:00:00 13.2 -- -- -- -- 0 -- -- 84
2017-10-25 21:00:00 14.5 -- -- -- -- 0 -- -- 81
2017-10-25 20:00:00 16.6 -- -- -- -- 0 -- -- 73
2017-10-25 19:00:00 20.1 -- -- -- -- 0 -- -- 59
2017-10-25 18:00:00 21.9 -- -- -- -- 0 -- -- 50
2017-10-25 17:00:00 23 -- -- -- -- 0 -- -- 47
2017-10-25 16:00:00 22.9 -- -- -- -- 0.4 -- -- 44
2017-10-25 15:00:00 21.2 -- -- -- -- 0 -- -- 51
2017-10-25 14:00:00 19.8 -- -- -- -- 0 -- -- 64
2017-10-25 13:00:00 17.3 -- -- -- -- 0 -- -- 65
2017-10-25 12:00:00 13.8 -- -- -- -- 0 -- -- 74
2017-10-25 11:00:00 10.4 -- -- -- -- 0 -- -- 94
2017-10-25 10:00:00 7.5 -- -- -- -- 0 -- -- 93
2017-10-25 09:00:00 7.2 -- -- -- -- 0 -- -- 92
2017-10-25 08:00:00 7.1 -- -- -- -- 0 -- -- 91
2017-10-25 07:00:00 7.3 -- -- -- -- 0 -- -- 90
2017-10-25 06:00:00 7.7 -- -- -- -- 0 -- -- 89
2017-10-25 05:00:00 8 -- -- -- -- 0 -- -- 87
2017-10-25 04:00:00 8.4 -- -- -- -- 0 -- -- 86
2017-10-25 03:00:00 8.9 -- -- -- -- 0 -- -- 83
2017-10-25 02:00:00 9.4 -- -- -- -- 0 -- -- 81
2017-10-25 01:00:00 9.8 -- -- -- -- 0 -- -- 79
2017-10-25 00:00:00 10.1 -- -- -- -- 0 -- -- 80